Historyczne dane pomiarowe

Dodano dane terminowe – wersja testowa.

Dane z okresu 1951-2019

Wersja bazy: 1.34 [2019-03-16, lista zmian], aktualizacja planowana na 2019-04-15

Dane meteo z obszaru Polski uzyskane na podstawie danych udostępnionych przez Instytut Meteorologii i Gospodarki Wodnej – Państwowy Instytut Badawczy.

 

Wybierz Datę:    

       

TemperaturaWilgotnośćZachmurzenieWiatrCiśnienieWidzialnośćZjawiska
 Data    tng td wb rh cc ccl cl cm ch dir g1 g2 mslp ppp      
1999-08-09 00:00:00 20.4--- 15.1 17.172wxwxwxwx1wx--1003.6 981.4 0.0---wxw1
1999-08-09 01:00:00 18.9--- 14.9 16.478wxwx1wx--1003.8 981.5----wx
1999-08-09 02:00:00 18.4--- 14.3 15.977wxwx2wx--1003.9 981.5----wx
1999-08-09 03:00:00 17.7--- 14.6 15.882wxwxwx2wx--1004.2 981.8----wx
1999-08-09 04:00:00 17.7--- 15.1 16.185wxwxwxwx2wx--1004.6 982.2----wx
1999-08-09 05:00:00 19.1--- 15.8 17.081wxwxwxwx2wx--1004.9 982.6----wx
1999-08-09 06:00:00 20.2--- 14.2 16.568wxwxwx3wx--1005.6 983.3 0.0---wx
1999-08-09 07:00:00 21.2--- 14.3 16.965wxwxwxwx3wx--1006.1 983.9----wx
1999-08-09 08:00:00 22.9--- 14.6 17.760wxwxwxwx1wx--1005.9 983.8----wx
1999-08-09 09:00:00 23.3--- 13.8 17.455wxwxwxwx2wx--1006.1 984.1----wx
1999-08-09 10:00:00 24.0--- 15.0 18.357wxwxwxwx2wx--1006.9 984.9----wx
1999-08-09 11:00:00 24.8--- 14.7 18.453wxwxwxwx2wx--1006.4 984.5----wx
1999-08-09 12:00:00 24.7--- 14.6 18.353wxwxwxwx4wx--1006.4 984.4 0.0---wx
1999-08-09 13:00:00 26.1--- 14.2 18.648wxwxwxwxwx4wx--1006.0 984.2----wx
1999-08-09 14:00:00 26.5--- 15.1 19.250wxwxwxwx4wx--1006.0 984.2----wx
1999-08-09 15:00:00 19.7--- 17.4 18.287wxwxwxwx1wx--1006.5 984.2----wxw1
1999-08-09 16:00:00 22.7--- 16.9 18.970wxwxwxwx3wx--1006.2 984.1----wx
1999-08-09 17:00:00 22.6--- 17.1 19.071wxwxwxwx1wx--1006.4 984.3----wx
1999-08-09 18:00:00 21.7--- 16.9 18.674wxwxwxwxwx2wx--1006.2 984.0 3.3---wxw1
1999-08-09 19:00:00 20.6--- 15.4 17.372wxwxwxwxwx2wx--1006.6 984.3----wx
1999-08-09 20:00:00 19.4--- 15.6 17.079wxwxwxwxwx2wx--1007.0 984.6----wx
1999-08-09 21:00:00 20.2--- 15.8 17.476wxwxwxwx2wx--1007.0 984.7----wx
1999-08-09 22:00:00 19.8--- 16.0 17.479wxwxwxwx1wx--1006.7 984.4----wx
1999-08-09 23:00:00 19.2--- 16.0 17.282wxwx2wx--1006.9 984.5----wx

 

Źródłem pochodzenia danych jest Instytut Meteorologii i Gospodarki Wodnej – Państwowy Instytut Badawczy. Dane Instytutu Meteorologii i Gospodarki Wodnej – Państwowego Instytutu Badawczego zostały przetworzone.

Dane źródłowe można odnaleźć na stronie https://dane.imgw.pl